sensor_id;sensor_type;location;lat;lon;timestamp;temperature;humidity
5476;DHT22;2760;50.000;9.194;2023-08-20T00:01:41;24.00;99.90
5476;DHT22;2760;50.000;9.194;2023-08-20T00:04:10;24.10;99.90
5476;DHT22;2760;50.000;9.194;2023-08-20T00:06:38;24.20;99.90
5476;DHT22;2760;50.000;9.194;2023-08-20T00:09:10;24.00;99.90
5476;DHT22;2760;50.000;9.194;2023-08-20T00:11:38;24.10;99.90
5476;DHT22;2760;50.000;9.194;2023-08-20T00:14:06;24.00;99.90
5476;DHT22;2760;50.000;9.194;2023-08-20T00:16:34;24.30;99.90
5476;DHT22;2760;50.000;9.194;2023-08-20T00:19:03;21.80;99.90
5476;DHT22;2760;50.000;9.194;2023-08-20T00:21:30;24.00;99.90
5476;DHT22;2760;50.000;9.194;2023-08-20T00:23:58;24.00;99.90
5476;DHT22;2760;50.000;9.194;2023-08-20T00:26:31;24.00;99.90
5476;DHT22;2760;50.000;9.194;2023-08-20T00:28:59;24.10;99.90
5476;DHT22;2760;50.000;9.194;2023-08-20T00:31:26;22.20;99.90
5476;DHT22;2760;50.000;9.194;2023-08-20T00:33:55;24.10;99.90
5476;DHT22;2760;50.000;9.194;2023-08-20T00:36:22;21.90;99.90
5476;DHT22;2760;50.000;9.194;2023-08-20T00:41:20;24.00;99.90
5476;DHT22;2760;50.000;9.194;2023-08-20T00:43:49;24.10;99.90
5476;DHT22;2760;50.000;9.194;2023-08-20T00:46:18;23.80;99.90
5476;DHT22;2760;50.000;9.194;2023-08-20T00:48:45;23.70;99.90
5476;DHT22;2760;50.000;9.194;2023-08-20T00:51:13;22.40;99.90
5476;DHT22;2760;50.000;9.194;2023-08-20T00:53:41;23.70;99.90
5476;DHT22;2760;50.000;9.194;2023-08-20T00:56:09;23.60;99.90
5476;DHT22;2760;50.000;9.194;2023-08-20T00:58:38;23.60;99.90
5476;DHT22;2760;50.000;9.194;2023-08-20T01:01:12;23.60;99.90
5476;DHT22;2760;50.000;9.194;2023-08-20T01:03:49;23.50;99.90
5476;DHT22;2760;50.000;9.194;2023-08-20T01:06:33;23.60;99.90
5476;DHT22;2760;50.000;9.194;2023-08-20T01:09:15;23.70;99.90
5476;DHT22;2760;50.000;9.194;2023-08-20T01:11:49;21.50;99.90
5476;DHT22;2760;50.000;9.194;2023-08-20T01:14:21;23.50;99.90
5476;DHT22;2760;50.000;9.194;2023-08-20T01:16:50;23.50;99.90
5476;DHT22;2760;50.000;9.194;2023-08-20T01:19:19;22.90;99.90
5476;DHT22;2760;50.000;9.194;2023-08-20T01:21:56;23.50;99.90
5476;DHT22;2760;50.000;9.194;2023-08-20T01:24:37;23.50;99.90
5476;DHT22;2760;50.000;9.194;2023-08-20T01:27:15;23.40;99.90
5476;DHT22;2760;50.000;9.194;2023-08-20T01:29:48;23.50;99.90
5476;DHT22;2760;50.000;9.194;2023-08-20T01:32:16;23.50;99.90
5476;DHT22;2760;50.000;9.194;2023-08-20T01:34:45;23.40;99.90
5476;DHT22;2760;50.000;9.194;2023-08-20T01:37:14;23.50;99.90
5476;DHT22;2760;50.000;9.194;2023-08-20T01:39:41;23.40;99.90
5476;DHT22;2760;50.000;9.194;2023-08-20T01:42:09;23.50;99.90
5476;DHT22;2760;50.000;9.194;2023-08-20T01:44:37;23.50;99.90
5476;DHT22;2760;50.000;9.194;2023-08-20T01:47:06;23.30;99.90
5476;DHT22;2760;50.000;9.194;2023-08-20T01:49:34;23.10;99.90
5476;DHT22;2760;50.000;9.194;2023-08-20T01:52:02;23.00;99.90
5476;DHT22;2760;50.000;9.194;2023-08-20T01:54:30;23.00;99.90
5476;DHT22;2760;50.000;9.194;2023-08-20T01:56:57;23.00;99.90
5476;DHT22;2760;50.000;9.194;2023-08-20T01:59:26;20.90;99.90
5476;DHT22;2760;50.000;9.194;2023-08-20T02:01:54;22.80;99.90
5476;DHT22;2760;50.000;9.194;2023-08-20T02:04:25;22.70;99.90
5476;DHT22;2760;50.000;9.194;2023-08-20T02:06:52;22.80;99.90
5476;DHT22;2760;50.000;9.194;2023-08-20T02:09:20;20.70;99.90
5476;DHT22;2760;50.000;9.194;2023-08-20T02:11:50;22.70;99.90
5476;DHT22;2760;50.000;9.194;2023-08-20T02:14:17;22.70;99.90
5476;DHT22;2760;50.000;9.194;2023-08-20T02:16:46;22.70;99.90
5476;DHT22;2760;50.000;9.194;2023-08-20T02:19:14;22.60;99.90
5476;DHT22;2760;50.000;9.194;2023-08-20T02:21:46;22.70;99.90
5476;DHT22;2760;50.000;9.194;2023-08-20T02:24:13;22.50;99.90
5476;DHT22;2760;50.000;9.194;2023-08-20T02:26:40;22.50;99.90
5476;DHT22;2760;50.000;9.194;2023-08-20T02:29:08;22.50;99.90
5476;DHT22;2760;50.000;9.194;2023-08-20T02:31:37;20.00;99.90
5476;DHT22;2760;50.000;9.194;2023-08-20T02:34:06;22.50;99.90
5476;DHT22;2760;50.000;9.194;2023-08-20T02:36:33;22.50;99.90
5476;DHT22;2760;50.000;9.194;2023-08-20T02:39:05;19.90;99.90
5476;DHT22;2760;50.000;9.194;2023-08-20T02:41:35;22.40;99.90
5476;DHT22;2760;50.000;9.194;2023-08-20T02:44:04;21.80;99.90
5476;DHT22;2760;50.000;9.194;2023-08-20T02:46:31;22.20;99.90
5476;DHT22;2760;50.000;9.194;2023-08-20T02:49:00;22.00;99.90
5476;DHT22;2760;50.000;9.194;2023-08-20T02:51:27;22.10;99.90
5476;DHT22;2760;50.000;9.194;2023-08-20T02:53:55;22.00;99.90
5476;DHT22;2760;50.000;9.194;2023-08-20T02:56:28;22.10;99.90
5476;DHT22;2760;50.000;9.194;2023-08-20T02:58:55;22.10;99.90
5476;DHT22;2760;50.000;9.194;2023-08-20T03:01:25;22.00;99.90
5476;DHT22;2760;50.000;9.194;2023-08-20T03:03:55;22.00;99.90
5476;DHT22;2760;50.000;9.194;2023-08-20T03:06:23;22.20;99.90
5476;DHT22;2760;50.000;9.194;2023-08-20T03:08:53;22.10;99.90
5476;DHT22;2760;50.000;9.194;2023-08-20T03:11:21;22.20;99.90
5476;DHT22;2760;50.000;9.194;2023-08-20T03:13:50;22.00;99.90
5476;DHT22;2760;50.000;9.194;2023-08-20T03:16:18;22.00;99.90
5476;DHT22;2760;50.000;9.194;2023-08-20T03:18:45;22.10;99.90
5476;DHT22;2760;50.000;9.194;2023-08-20T03:21:14;22.40;99.90
5476;DHT22;2760;50.000;9.194;2023-08-20T03:23:41;22.10;99.90
5476;DHT22;2760;50.000;9.194;2023-08-20T03:26:09;22.20;99.90
5476;DHT22;2760;50.000;9.194;2023-08-20T03:28:37;22.20;99.90
5476;DHT22;2760;50.000;9.194;2023-08-20T03:31:10;22.20;99.90
5476;DHT22;2760;50.000;9.194;2023-08-20T03:33:41;22.10;99.90
5476;DHT22;2760;50.000;9.194;2023-08-20T03:36:13;22.20;99.90
5476;DHT22;2760;50.000;9.194;2023-08-20T03:38:42;22.20;99.90
5476;DHT22;2760;50.000;9.194;2023-08-20T03:41:10;22.20;99.90
5476;DHT22;2760;50.000;9.194;2023-08-20T03:43:37;22.00;99.90
5476;DHT22;2760;50.000;9.194;2023-08-20T03:46:04;21.90;99.90
5476;DHT22;2760;50.000;9.194;2023-08-20T03:48:33;21.90;99.90
5476;DHT22;2760;50.000;9.194;2023-08-20T03:51:00;21.80;99.90
5476;DHT22;2760;50.000;9.194;2023-08-20T03:53:26;22.00;99.90
5476;DHT22;2760;50.000;9.194;2023-08-20T03:55:53;22.10;99.90
5476;DHT22;2760;50.000;9.194;2023-08-20T03:58:20;21.90;99.90
5476;DHT22;2760;50.000;9.194;2023-08-20T04:00:47;21.90;99.90
5476;DHT22;2760;50.000;9.194;2023-08-20T04:03:14;21.80;99.90
5476;DHT22;2760;50.000;9.194;2023-08-20T04:05:46;21.80;99.90
5476;DHT22;2760;50.000;9.194;2023-08-20T04:08:14;21.70;99.90
5476;DHT22;2760;50.000;9.194;2023-08-20T04:10:44;21.70;99.90
5476;DHT22;2760;50.000;9.194;2023-08-20T04:13:12;21.70;99.90
5476;DHT22;2760;50.000;9.194;2023-08-20T04:15:41;21.60;99.90
5476;DHT22;2760;50.000;9.194;2023-08-20T04:18:08;21.60;99.90
5476;DHT22;2760;50.000;9.194;2023-08-20T04:20:36;21.60;99.90
5476;DHT22;2760;50.000;9.194;2023-08-20T04:23:05;21.60;99.90
5476;DHT22;2760;50.000;9.194;2023-08-20T04:25:32;21.60;99.90
5476;DHT22;2760;50.000;9.194;2023-08-20T04:27:59;21.60;99.90
5476;DHT22;2760;50.000;9.194;2023-08-20T04:30:26;21.70;99.90
5476;DHT22;2760;50.000;9.194;2023-08-20T04:32:54;21.80;99.90
5476;DHT22;2760;50.000;9.194;2023-08-20T04:35:21;21.90;99.90
5476;DHT22;2760;50.000;9.194;2023-08-20T04:37:49;21.90;99.90
5476;DHT22;2760;50.000;9.194;2023-08-20T04:40:17;21.70;99.90
5476;DHT22;2760;50.000;9.194;2023-08-20T04:42:45;21.70;99.90
5476;DHT22;2760;50.000;9.194;2023-08-20T04:45:12;21.90;99.90
5476;DHT22;2760;50.000;9.194;2023-08-20T04:47:39;22.00;99.90
5476;DHT22;2760;50.000;9.194;2023-08-20T04:50:08;21.90;99.90
5476;DHT22;2760;50.000;9.194;2023-08-20T04:52:35;21.80;99.90
5476;DHT22;2760;50.000;9.194;2023-08-20T04:55:03;21.80;99.90
5476;DHT22;2760;50.000;9.194;2023-08-20T04:57:31;21.90;99.90
5476;DHT22;2760;50.000;9.194;2023-08-20T04:59:58;22.10;99.90
5476;DHT22;2760;50.000;9.194;2023-08-20T05:02:39;22.20;99.90
5476;DHT22;2760;50.000;9.194;2023-08-20T05:05:10;22.50;99.90
5476;DHT22;2760;50.000;9.194;2023-08-20T05:07:38;22.40;99.90
5476;DHT22;2760;50.000;9.194;2023-08-20T05:10:07;22.60;99.90
5476;DHT22;2760;50.000;9.194;2023-08-20T05:12:35;22.70;99.90
5476;DHT22;2760;50.000;9.194;2023-08-20T05:15:03;22.30;99.90
5476;DHT22;2760;50.000;9.194;2023-08-20T05:17:31;22.30;99.90
5476;DHT22;2760;50.000;9.194;2023-08-20T05:19:58;22.40;99.90
5476;DHT22;2760;50.000;9.194;2023-08-20T05:22:25;22.40;99.90
5476;DHT22;2760;50.000;9.194;2023-08-20T05:24:51;22.50;99.90
5476;DHT22;2760;50.000;9.194;2023-08-20T05:27:19;22.50;99.90
5476;DHT22;2760;50.000;9.194;2023-08-20T05:29:51;22.60;99.90
5476;DHT22;2760;50.000;9.194;2023-08-20T05:32:19;22.60;99.90
5476;DHT22;2760;50.000;9.194;2023-08-20T05:34:46;22.70;99.90
5476;DHT22;2760;50.000;9.194;2023-08-20T05:37:13;22.90;99.90
5476;DHT22;2760;50.000;9.194;2023-08-20T05:39:43;23.00;99.90
5476;DHT22;2760;50.000;9.194;2023-08-20T05:42:11;23.00;99.90
5476;DHT22;2760;50.000;9.194;2023-08-20T05:44:42;23.20;99.90
5476;DHT22;2760;50.000;9.194;2023-08-20T05:47:17;23.50;99.90
5476;DHT22;2760;50.000;9.194;2023-08-20T05:49:46;23.50;99.90
5476;DHT22;2760;50.000;9.194;2023-08-20T05:52:13;23.60;99.90
5476;DHT22;2760;50.000;9.194;2023-08-20T05:54:42;23.50;99.90
5476;DHT22;2760;50.000;9.194;2023-08-20T05:57:12;23.80;99.90
5476;DHT22;2760;50.000;9.194;2023-08-20T05:59:41;23.90;99.90
5476;DHT22;2760;50.000;9.194;2023-08-20T06:02:08;23.90;99.90
5476;DHT22;2760;50.000;9.194;2023-08-20T06:04:38;24.40;99.90
5476;DHT22;2760;50.000;9.194;2023-08-20T06:07:06;24.60;99.90
5476;DHT22;2760;50.000;9.194;2023-08-20T06:09:33;24.30;99.90
5476;DHT22;2760;50.000;9.194;2023-08-20T06:12:02;24.90;99.90
5476;DHT22;2760;50.000;9.194;2023-08-20T06:14:46;25.50;99.90
5476;DHT22;2760;50.000;9.194;2023-08-20T06:17:28;25.80;99.90
5476;DHT22;2760;50.000;9.194;2023-08-20T06:20:36;26.00;99.90
5476;DHT22;2760;50.000;9.194;2023-08-20T06:23:05;24.90;99.90
5476;DHT22;2760;50.000;9.194;2023-08-20T06:25:33;24.90;99.90
5476;DHT22;2760;50.000;9.194;2023-08-20T06:28:02;24.60;99.90
5476;DHT22;2760;50.000;9.194;2023-08-20T06:31:13;24.90;99.90
5476;DHT22;2760;50.000;9.194;2023-08-20T06:33:55;24.40;99.90
5476;DHT22;2760;50.000;9.194;2023-08-20T06:36:25;24.80;99.90
5476;DHT22;2760;50.000;9.194;2023-08-20T06:38:53;25.40;99.90
5476;DHT22;2760;50.000;9.194;2023-08-20T06:41:24;25.20;99.90
5476;DHT22;2760;50.000;9.194;2023-08-20T06:43:52;25.50;99.90
5476;DHT22;2760;50.000;9.194;2023-08-20T06:46:24;25.50;99.90
5476;DHT22;2760;50.000;9.194;2023-08-20T06:48:55;25.30;99.90
5476;DHT22;2760;50.000;9.194;2023-08-20T06:51:26;25.50;99.90
5476;DHT22;2760;50.000;9.194;2023-08-20T06:53:54;25.30;99.90
5476;DHT22;2760;50.000;9.194;2023-08-20T06:56:23;25.40;99.90
5476;DHT22;2760;50.000;9.194;2023-08-20T06:58:56;23.30;99.90
5476;DHT22;2760;50.000;9.194;2023-08-20T07:01:44;25.00;99.90
5476;DHT22;2760;50.000;9.194;2023-08-20T07:04:14;26.10;99.90
5476;DHT22;2760;50.000;9.194;2023-08-20T07:06:46;25.90;99.90
5476;DHT22;2760;50.000;9.194;2023-08-20T07:09:27;26.20;99.90
5476;DHT22;2760;50.000;9.194;2023-08-20T07:11:55;26.40;99.90
5476;DHT22;2760;50.000;9.194;2023-08-20T07:14:22;26.20;99.90
5476;DHT22;2760;50.000;9.194;2023-08-20T07:16:54;26.50;99.90
5476;DHT22;2760;50.000;9.194;2023-08-20T07:19:22;26.90;99.90
5476;DHT22;2760;50.000;9.194;2023-08-20T07:21:52;26.70;99.90
5476;DHT22;2760;50.000;9.194;2023-08-20T07:27:05;25.60;99.90
5476;DHT22;2760;50.000;9.194;2023-08-20T07:33:45;26.70;99.90
5476;DHT22;2760;50.000;9.194;2023-08-20T07:40:09;26.60;99.90
5476;DHT22;2760;50.000;9.194;2023-08-20T07:42:44;27.50;99.90
5476;DHT22;2760;50.000;9.194;2023-08-20T07:45:18;27.40;99.90
5476;DHT22;2760;50.000;9.194;2023-08-20T07:47:49;27.20;99.90
5476;DHT22;2760;50.000;9.194;2023-08-20T07:50:21;27.70;99.90
5476;DHT22;2760;50.000;9.194;2023-08-20T07:52:48;26.60;99.90
5476;DHT22;2760;50.000;9.194;2023-08-20T07:55:18;28.20;99.90
5476;DHT22;2760;50.000;9.194;2023-08-20T07:57:46;28.60;99.90
5476;DHT22;2760;50.000;9.194;2023-08-20T08:00:16;28.30;99.90
5476;DHT22;2760;50.000;9.194;2023-08-20T08:02:43;27.10;99.90
5476;DHT22;2760;50.000;9.194;2023-08-20T09:10:22;31.00;99.90
5476;DHT22;2760;50.000;9.194;2023-08-20T09:12:50;29.60;99.90
5476;DHT22;2760;50.000;9.194;2023-08-20T09:15:35;31.30;99.90
5476;DHT22;2760;50.000;9.194;2023-08-20T09:18:17;31.70;99.90
5476;DHT22;2760;50.000;9.194;2023-08-20T09:20:47;32.10;99.90
5476;DHT22;2760;50.000;9.194;2023-08-20T09:23:15;32.30;99.90
5476;DHT22;2760;50.000;9.194;2023-08-20T09:25:45;32.30;99.90
5476;DHT22;2760;50.000;9.194;2023-08-20T09:28:15;32.50;99.90
5476;DHT22;2760;50.000;9.194;2023-08-20T09:31:00;32.10;99.90
5476;DHT22;2760;50.000;9.194;2023-08-20T09:37:29;31.80;99.90
5476;DHT22;2760;50.000;9.194;2023-08-20T09:40:06;32.30;99.90
5476;DHT22;2760;50.000;9.194;2023-08-20T09:42:36;33.30;99.90
5476;DHT22;2760;50.000;9.194;2023-08-20T09:45:05;33.00;99.90
5476;DHT22;2760;50.000;9.194;2023-08-20T09:47:48;32.90;99.90
5476;DHT22;2760;50.000;9.194;2023-08-20T09:50:23;34.30;99.90
5476;DHT22;2760;50.000;9.194;2023-08-20T09:52:57;32.70;99.90
5476;DHT22;2760;50.000;9.194;2023-08-20T09:55:30;33.00;99.90
5476;DHT22;2760;50.000;9.194;2023-08-20T09:58:10;31.60;99.60
5476;DHT22;2760;50.000;9.194;2023-08-20T10:00:40;30.50;99.20
5476;DHT22;2760;50.000;9.194;2023-08-20T10:03:09;32.90;99.90
5476;DHT22;2760;50.000;9.194;2023-08-20T10:05:37;33.20;99.90
5476;DHT22;2760;50.000;9.194;2023-08-20T10:08:07;32.70;99.90
5476;DHT22;2760;50.000;9.194;2023-08-20T10:10:37;33.00;99.90
5476;DHT22;2760;50.000;9.194;2023-08-20T10:13:05;33.30;99.90
5476;DHT22;2760;50.000;9.194;2023-08-20T10:15:36;32.70;99.60
5476;DHT22;2760;50.000;9.194;2023-08-20T10:21:08;33.30;99.90
5476;DHT22;2760;50.000;9.194;2023-08-20T10:23:41;33.10;99.90
5476;DHT22;2760;50.000;9.194;2023-08-20T10:26:11;34.00;99.90
5476;DHT22;2760;50.000;9.194;2023-08-20T10:28:40;34.20;99.40
5476;DHT22;2760;50.000;9.194;2023-08-20T10:31:18;34.30;99.90
5476;DHT22;2760;50.000;9.194;2023-08-20T10:33:53;34.60;99.00
5476;DHT22;2760;50.000;9.194;2023-08-20T10:36:25;33.30;99.10
5476;DHT22;2760;50.000;9.194;2023-08-20T10:39:20;34.40;99.50
5476;DHT22;2760;50.000;9.194;2023-08-20T10:42:22;34.10;98.50
5476;DHT22;2760;50.000;9.194;2023-08-20T10:45:05;34.60;97.90
5476;DHT22;2760;50.000;9.194;2023-08-20T10:47:50;34.60;98.00
5476;DHT22;2760;50.000;9.194;2023-08-20T10:50:19;34.50;98.10
5476;DHT22;2760;50.000;9.194;2023-08-20T10:52:54;34.80;98.30
5476;DHT22;2760;50.000;9.194;2023-08-20T10:55:36;35.10;97.40
5476;DHT22;2760;50.000;9.194;2023-08-20T10:58:08;34.80;97.50
5476;DHT22;2760;50.000;9.194;2023-08-20T11:00:37;32.90;96.20
5476;DHT22;2760;50.000;9.194;2023-08-20T11:03:11;34.70;97.00
5476;DHT22;2760;50.000;9.194;2023-08-20T11:05:49;34.20;98.20
5476;DHT22;2760;50.000;9.194;2023-08-20T11:08:18;34.30;97.50
5476;DHT22;2760;50.000;9.194;2023-08-20T11:10:49;33.30;97.20
5476;DHT22;2760;50.000;9.194;2023-08-20T11:13:23;33.40;97.40
5476;DHT22;2760;50.000;9.194;2023-08-20T11:16:07;33.70;97.40
5476;DHT22;2760;50.000;9.194;2023-08-20T11:18:43;33.50;96.60
5476;DHT22;2760;50.000;9.194;2023-08-20T11:21:16;33.60;97.50
5476;DHT22;2760;50.000;9.194;2023-08-20T11:23:48;32.10;96.40
5476;DHT22;2760;50.000;9.194;2023-08-20T11:26:31;32.60;95.50
5476;DHT22;2760;50.000;9.194;2023-08-20T11:29:05;35.10;96.10
5476;DHT22;2760;50.000;9.194;2023-08-20T11:31:41;35.50;95.40
5476;DHT22;2760;50.000;9.194;2023-08-20T11:34:14;34.60;95.70
5476;DHT22;2760;50.000;9.194;2023-08-20T11:36:43;32.90;94.30
5476;DHT22;2760;50.000;9.194;2023-08-20T11:39:12;35.00;94.20
5476;DHT22;2760;50.000;9.194;2023-08-20T11:41:40;35.00;94.80
5476;DHT22;2760;50.000;9.194;2023-08-20T11:44:11;35.70;93.70
5476;DHT22;2760;50.000;9.194;2023-08-20T11:46:43;35.20;93.50
5476;DHT22;2760;50.000;9.194;2023-08-20T11:49:35;35.00;93.90
5476;DHT22;2760;50.000;9.194;2023-08-20T11:52:04;34.90;94.20
5476;DHT22;2760;50.000;9.194;2023-08-20T11:54:32;34.30;93.40
5476;DHT22;2760;50.000;9.194;2023-08-20T11:57:02;33.90;94.40
5476;DHT22;2760;50.000;9.194;2023-08-20T11:59:33;34.30;94.70
5476;DHT22;2760;50.000;9.194;2023-08-20T12:02:03;34.30;94.20
5476;DHT22;2760;50.000;9.194;2023-08-20T12:04:40;32.70;93.50
5476;DHT22;2760;50.000;9.194;2023-08-20T12:07:15;35.00;95.00
5476;DHT22;2760;50.000;9.194;2023-08-20T12:09:42;34.80;93.30
5476;DHT22;2760;50.000;9.194;2023-08-20T12:12:10;32.90;92.30
5476;DHT22;2760;50.000;9.194;2023-08-20T12:14:40;36.20;93.30
5476;DHT22;2760;50.000;9.194;2023-08-20T12:17:08;35.20;92.60
5476;DHT22;2760;50.000;9.194;2023-08-20T12:19:37;35.20;92.90
5476;DHT22;2760;50.000;9.194;2023-08-20T12:22:05;33.60;93.60
5476;DHT22;2760;50.000;9.194;2023-08-20T12:24:35;34.20;92.50
5476;DHT22;2760;50.000;9.194;2023-08-20T12:27:03;35.50;93.20
5476;DHT22;2760;50.000;9.194;2023-08-20T12:29:30;35.60;92.20
5476;DHT22;2760;50.000;9.194;2023-08-20T12:31:58;36.80;92.30
5476;DHT22;2760;50.000;9.194;2023-08-20T12:34:26;35.10;93.10
5476;DHT22;2760;50.000;9.194;2023-08-20T12:36:56;35.90;92.50
5476;DHT22;2760;50.000;9.194;2023-08-20T12:39:24;35.70;94.30
5476;DHT22;2760;50.000;9.194;2023-08-20T12:41:52;36.20;92.80
5476;DHT22;2760;50.000;9.194;2023-08-20T12:44:19;35.70;92.80
5476;DHT22;2760;50.000;9.194;2023-08-20T12:46:47;35.10;93.30
5476;DHT22;2760;50.000;9.194;2023-08-20T12:49:15;36.20;91.40
5476;DHT22;2760;50.000;9.194;2023-08-20T12:51:43;36.30;91.90
5476;DHT22;2760;50.000;9.194;2023-08-20T12:54:12;35.90;92.40
5476;DHT22;2760;50.000;9.194;2023-08-20T12:56:40;34.60;91.70
5476;DHT22;2760;50.000;9.194;2023-08-20T12:59:07;36.00;92.50
5476;DHT22;2760;50.000;9.194;2023-08-20T13:01:35;36.70;92.50
5476;DHT22;2760;50.000;9.194;2023-08-20T13:04:04;37.70;91.80
5476;DHT22;2760;50.000;9.194;2023-08-20T13:06:32;37.60;91.50
5476;DHT22;2760;50.000;9.194;2023-08-20T13:09:00;36.10;91.50
5476;DHT22;2760;50.000;9.194;2023-08-20T13:11:30;35.30;92.10
5476;DHT22;2760;50.000;9.194;2023-08-20T13:13:58;35.00;92.90
5476;DHT22;2760;50.000;9.194;2023-08-20T13:16:26;34.80;92.80
5476;DHT22;2760;50.000;9.194;2023-08-20T13:18:55;35.20;92.80
5476;DHT22;2760;50.000;9.194;2023-08-20T13:21:23;35.50;91.80
5476;DHT22;2760;50.000;9.194;2023-08-20T13:23:51;35.80;91.20
5476;DHT22;2760;50.000;9.194;2023-08-20T13:26:20;36.10;91.70
5476;DHT22;2760;50.000;9.194;2023-08-20T13:53:15;37.00;90.30
5476;DHT22;2760;50.000;9.194;2023-08-20T13:58:10;35.70;90.80
5476;DHT22;2760;50.000;9.194;2023-08-20T14:03:05;35.20;91.00
5476;DHT22;2760;50.000;9.194;2023-08-20T14:05:33;35.20;92.00
5476;DHT22;2760;50.000;9.194;2023-08-20T14:08:00;36.00;91.60
5476;DHT22;2760;50.000;9.194;2023-08-20T14:10:32;35.00;92.00
5476;DHT22;2760;50.000;9.194;2023-08-20T14:12:59;35.20;92.40
5476;DHT22;2760;50.000;9.194;2023-08-20T14:15:26;35.70;92.60
5476;DHT22;2760;50.000;9.194;2023-08-20T14:17:54;36.00;91.40
5476;DHT22;2760;50.000;9.194;2023-08-20T14:22:48;35.50;91.60
5476;DHT22;2760;50.000;9.194;2023-08-20T14:25:16;35.90;92.00
5476;DHT22;2760;50.000;9.194;2023-08-20T14:27:44;35.80;91.10
5476;DHT22;2760;50.000;9.194;2023-08-20T14:30:12;36.10;91.00
5476;DHT22;2760;50.000;9.194;2023-08-20T14:32:39;35.80;90.50
5476;DHT22;2760;50.000;9.194;2023-08-20T14:35:08;34.90;91.00
5476;DHT22;2760;50.000;9.194;2023-08-20T14:40:04;34.20;91.30
5476;DHT22;2760;50.000;9.194;2023-08-20T14:42:32;34.10;92.60
5476;DHT22;2760;50.000;9.194;2023-08-20T14:45:02;34.40;92.00
5476;DHT22;2760;50.000;9.194;2023-08-20T14:47:29;35.10;91.20
5476;DHT22;2760;50.000;9.194;2023-08-20T14:49:57;34.80;91.20
5476;DHT22;2760;50.000;9.194;2023-08-20T14:52:24;34.20;92.00
5476;DHT22;2760;50.000;9.194;2023-08-20T14:54:51;34.30;91.60
5476;DHT22;2760;50.000;9.194;2023-08-20T14:57:19;34.50;92.40
5476;DHT22;2760;50.000;9.194;2023-08-20T14:59:46;34.00;92.60
5476;DHT22;2760;50.000;9.194;2023-08-20T15:02:22;33.00;91.60
5476;DHT22;2760;50.000;9.194;2023-08-20T15:04:50;34.00;91.80
5476;DHT22;2760;50.000;9.194;2023-08-20T15:07:17;34.00;91.40
5476;DHT22;2760;50.000;9.194;2023-08-20T15:09:44;33.60;92.20
5476;DHT22;2760;50.000;9.194;2023-08-20T15:12:12;34.00;92.10
5476;DHT22;2760;50.000;9.194;2023-08-20T15:14:39;33.70;91.90
5476;DHT22;2760;50.000;9.194;2023-08-20T15:17:06;33.60;91.80
5476;DHT22;2760;50.000;9.194;2023-08-20T15:19:38;33.70;92.10
5476;DHT22;2760;50.000;9.194;2023-08-20T15:22:05;33.70;92.00
5476;DHT22;2760;50.000;9.194;2023-08-20T15:24:32;33.60;92.50
5476;DHT22;2760;50.000;9.194;2023-08-20T15:27:00;33.50;92.00
5476;DHT22;2760;50.000;9.194;2023-08-20T15:29:29;33.20;92.40
5476;DHT22;2760;50.000;9.194;2023-08-20T15:31:56;33.30;93.30
5476;DHT22;2760;50.000;9.194;2023-08-20T15:34:23;33.00;93.20
5476;DHT22;2760;50.000;9.194;2023-08-20T15:36:52;33.00;92.90
5476;DHT22;2760;50.000;9.194;2023-08-20T15:41:49;33.00;92.20
5476;DHT22;2760;50.000;9.194;2023-08-20T15:44:17;32.80;92.00
5476;DHT22;2760;50.000;9.194;2023-08-20T15:46:44;32.70;93.00
5476;DHT22;2760;50.000;9.194;2023-08-20T15:49:11;32.80;92.50
5476;DHT22;2760;50.000;9.194;2023-08-20T15:51:39;32.70;92.70
5476;DHT22;2760;50.000;9.194;2023-08-20T15:54:07;32.90;92.90
5476;DHT22;2760;50.000;9.194;2023-08-20T15:56:37;33.20;93.00
5476;DHT22;2760;50.000;9.194;2023-08-20T15:59:04;32.80;92.60
5476;DHT22;2760;50.000;9.194;2023-08-20T16:01:31;32.60;92.00
5476;DHT22;2760;50.000;9.194;2023-08-20T16:03:59;32.80;92.70
5476;DHT22;2760;50.000;9.194;2023-08-20T16:08:54;32.70;92.30
5476;DHT22;2760;50.000;9.194;2023-08-20T16:11:23;34.60;93.10
5476;DHT22;2760;50.000;9.194;2023-08-20T16:13:50;32.70;92.40
5476;DHT22;2760;50.000;9.194;2023-08-20T16:16:17;32.50;92.60
5476;DHT22;2760;50.000;9.194;2023-08-20T16:18:45;32.60;92.90
5476;DHT22;2760;50.000;9.194;2023-08-20T16:21:12;32.40;91.90
5476;DHT22;2760;50.000;9.194;2023-08-20T16:23:40;32.50;92.00
5476;DHT22;2760;50.000;9.194;2023-08-20T16:26:07;32.60;93.00
5476;DHT22;2760;50.000;9.194;2023-08-20T16:28:35;32.60;92.40
5476;DHT22;2760;50.000;9.194;2023-08-20T16:31:03;32.70;92.60
5476;DHT22;2760;50.000;9.194;2023-08-20T16:33:31;32.60;92.60
5476;DHT22;2760;50.000;9.194;2023-08-20T16:35:58;32.60;93.20
5476;DHT22;2760;50.000;9.194;2023-08-20T16:38:26;32.40;92.90
5476;DHT22;2760;50.000;9.194;2023-08-20T16:40:53;32.40;93.40
5476;DHT22;2760;50.000;9.194;2023-08-20T16:43:20;32.40;93.40
5476;DHT22;2760;50.000;9.194;2023-08-20T16:45:54;32.20;93.80
5476;DHT22;2760;50.000;9.194;2023-08-20T16:48:22;32.00;93.60
5476;DHT22;2760;50.000;9.194;2023-08-20T16:50:49;31.90;93.60
5476;DHT22;2760;50.000;9.194;2023-08-20T16:53:24;31.90;94.20
5476;DHT22;2760;50.000;9.194;2023-08-20T16:58:46;31.80;93.40
5476;DHT22;2760;50.000;9.194;2023-08-20T17:14:06;31.80;95.10
5476;DHT22;2760;50.000;9.194;2023-08-20T17:16:33;31.70;95.60
5476;DHT22;2760;50.000;9.194;2023-08-20T17:19:00;29.30;94.90
5476;DHT22;2760;50.000;9.194;2023-08-20T17:21:27;31.90;95.90
5476;DHT22;2760;50.000;9.194;2023-08-20T17:23:55;31.80;96.20
5476;DHT22;2760;50.000;9.194;2023-08-20T17:26:22;31.80;95.70
5476;DHT22;2760;50.000;9.194;2023-08-20T17:28:49;31.60;96.30
5476;DHT22;2760;50.000;9.194;2023-08-20T17:31:19;31.50;96.70
5476;DHT22;2760;50.000;9.194;2023-08-20T17:33:47;31.40;96.90
5476;DHT22;2760;50.000;9.194;2023-08-20T17:36:14;31.40;97.50
5476;DHT22;2760;50.000;9.194;2023-08-20T17:38:42;31.20;97.50
5476;DHT22;2760;50.000;9.194;2023-08-20T17:41:10;31.10;97.50
5476;DHT22;2760;50.000;9.194;2023-08-20T17:43:39;31.10;98.50
5476;DHT22;2760;50.000;9.194;2023-08-20T17:46:09;31.10;97.70
5476;DHT22;2760;50.000;9.194;2023-08-20T17:48:40;31.10;98.10
5476;DHT22;2760;50.000;9.194;2023-08-20T17:51:12;31.00;97.50
5476;DHT22;2760;50.000;9.194;2023-08-20T17:56:07;30.90;97.70
5476;DHT22;2760;50.000;9.194;2023-08-20T17:58:34;30.70;98.30
5476;DHT22;2760;50.000;9.194;2023-08-20T18:01:02;32.40;99.00
5476;DHT22;2760;50.000;9.194;2023-08-20T18:03:30;30.60;98.10
5476;DHT22;2760;50.000;9.194;2023-08-20T18:06:01;30.50;98.30
5476;DHT22;2760;50.000;9.194;2023-08-20T18:08:28;30.40;99.10
5476;DHT22;2760;50.000;9.194;2023-08-20T18:10:56;30.40;98.50
5476;DHT22;2760;50.000;9.194;2023-08-20T18:13:24;30.40;97.50
5476;DHT22;2760;50.000;9.194;2023-08-20T18:15:50;30.20;97.70
5476;DHT22;2760;50.000;9.194;2023-08-20T18:18:17;30.30;97.40
5476;DHT22;2760;50.000;9.194;2023-08-20T18:20:45;30.20;97.90
5476;DHT22;2760;50.000;9.194;2023-08-20T18:23:14;30.00;98.30
5476;DHT22;2760;50.000;9.194;2023-08-20T18:25:42;30.10;98.30
5476;DHT22;2760;50.000;9.194;2023-08-20T18:33:05;29.20;99.90
5476;DHT22;2760;50.000;9.194;2023-08-20T18:35:32;28.90;99.90
5476;DHT22;2760;50.000;9.194;2023-08-20T18:37:59;28.80;99.90
5476;DHT22;2760;50.000;9.194;2023-08-20T18:40:28;28.60;99.90
5476;DHT22;2760;50.000;9.194;2023-08-20T18:45:24;28.20;99.90
5476;DHT22;2760;50.000;9.194;2023-08-20T18:47:52;28.00;99.90
5476;DHT22;2760;50.000;9.194;2023-08-20T18:50:19;28.00;99.90